Latest Weather Observations for Wudinna Airport

IDS60801

Issued at 11:01 am CDT Friday 31 March 2017 (issued every 30 minutes, with the page automatically refreshed every 10 minutes)

About weather observations | Map of weather stations | Latest weather observations for SA | Other Formats
Station Details ID: 018083 Name: WUDINNA AERO Lat: -33.04 Lon: 135.45 Height: 86.4 m
Data from the previous 72 hours. | See also: Recent months at Wudinna Airport
Date/Time
CDT
Temp
°C
App
Temp
°C
Dew
Point
°C
Rel
Hum
%
Delta-T
°C
Wind Press
QNH
hPa
Press
MSL
hPa
Rain since
9am
mm
Dir  Spd
km/h
Gust
km/h
Spd
kts
Gust
kts
31/11:00am 17.3 14.3 5.9 47 5.5 SSE 11 17 6 9 1025.5 1025.2 0.0
31/10:30am 16.5 13.4 5.5 48 5.3 ESE 11 17 6 9 1025.5 1025.2 0.0
31/10:00am 15.0 12.3 5.8 54 4.4 SE 9 13 5 7 1025.8 1025.5 0.0
31/09:30am 12.8 11.8 5.5 61 3.4 CALM 0 0 0 0 1025.7 1025.4 0.0
31/09:00am 10.0 9.0 5.4 73 2.1 CALM 0 0 0 0 1025.8 1025.5 0.0
31/08:30am 6.6 5.1 3.2 79 1.4 CALM 0 2 0 1 1025.7 1025.4 0.0
31/08:00am 4.0 2.2 1.5 84 1.0 CALM 0 0 0 0 1025.5 1025.2 0.0
31/07:30am 3.9 2.1 1.4 84 1.0 CALM 0 0 0 0 1025.2 1024.9 0.0
31/07:00am 3.9 1.0 1.3 83 1.0 NNE 6 6 3 3 1024.8 1024.5 0.0
31/06:30am 4.1 0.6 1.3 82 1.1 NE 9 13 5 7 1024.5 1024.2 0.0
31/06:00am 4.2 1.1 1.6 83 1.0 NE 7 9 4 5 1024.4 1024.1 0.0
31/05:30am 4.0 0.8 1.0 81 1.2 NNE 7 7 4 4 1024.2 1023.9 0.0
31/05:00am 4.3 1.2 1.3 81 1.2 NE 7 9 4 5 1024.2 1023.9 0.0
31/04:30am 4.8 3.0 1.5 79 1.3 CALM 0 0 0 0 1024.3 1024.0 0.0
31/04:00am 5.3 2.8 1.8 78 1.4 E 4 6 2 3 1024.4 1024.1 0.0
31/03:30am 5.5 2.6 1.4 75 1.6 E 6 7 3 4 1024.5 1024.2 0.0
31/03:00am 6.2 3.2 2.3 76 1.6 E 7 9 4 5 1024.5 1024.2 0.0
31/02:30am 7.2 5.6 2.7 73 1.9 CALM 0 0 0 0 1024.8 1024.5 0.0
31/02:00am 8.6 7.2 3.6 71 2.2 CALM 0 0 0 0 1025.0 1024.7 0.0
31/01:30am 11.8 9.5 5.7 66 2.8 SE 7 9 4 5 1025.3 1025.0 0.0
31/01:00am 12.4 10.1 5.8 64 3.1 SE 7 9 4 5 1025.4 1025.1 0.0
31/12:30am 13.3 10.6 5.7 60 3.6 SSE 9 13 5 7 1025.7 1025.4 0.0
31/12:00am 14.5 11.5 6.1 57 4.0 SSE 11 15 6 8 1025.8 1025.5 0.0
 
Date/Time
CDT
Temp
°C
App
Temp
°C
Dew
Point
°C
Rel
Hum
%
Delta-T
°C
Wind Press
QNH
hPa
Press
MSL
hPa
Rain since
9am
mm
Dir  Spd
km/h
Gust
km/h
Spd
kts
Gust
kts
30/11:30pm 14.7 11.4 6.3 57 4.0 SSE 13 17 7 9 1025.7 1025.4 0.0
30/11:00pm 15.2 11.1 6.2 55 4.4 SE 17 22 9 12 1025.6 1025.3 0.0
30/10:30pm 15.7 11.3 6.4 54 4.5 SE 19 28 10 15 1025.6 1025.3 0.0
30/10:00pm 15.7 11.9 5.9 52 4.7 SSE 15 24 8 13 1025.5 1025.2 0.0
30/09:30pm 15.8 11.6 5.7 51 4.8 SSE 17 26 9 14 1025.3 1025.0 0.0
30/09:00pm 15.5 12.0 5.4 51 4.8 SSE 13 17 7 9 1025.2 1024.9 0.0
30/08:30pm 15.6 10.9 5.2 50 4.9 SSW 19 28 10 15 1024.8 1024.5 0.0
30/08:00pm 16.6 11.7 5.3 47 5.4 S 20 26 11 14 1024.2 1023.9 0.0
30/07:30pm 17.6 12.5 4.2 41 6.3 S 20 32 11 17 1023.7 1023.4 0.0
30/07:00pm 19.0 14.0 3.6 36 7.3 S 19 28 10 15 1023.4 1023.1 0.0
30/06:30pm 19.5 12.4 3.6 35 7.5 S 30 41 16 22 1023.2 1022.9 0.0
30/06:00pm 20.5 14.5 3.3 32 8.1 S 24 33 13 18 1023.0 1022.7 0.0
30/05:30pm 21.4 16.0 2.6 29 8.8 S 20 43 11 23 1023.1 1022.8 0.0
30/05:00pm 21.3 16.1 2.6 29 8.8 SSE 19 28 10 15 1023.3 1023.0 0.0
30/04:30pm 21.0 15.8 2.3 29 8.7 S 19 28 10 15 1023.4 1023.1 0.0
30/04:00pm 21.3 16.6 3.0 30 8.7 S 17 32 9 17 1023.4 1023.1 0.0
30/03:30pm 20.8 15.6 2.6 30 8.5 SSE 19 30 10 16 1023.8 1023.5 0.0
30/03:00pm 20.2 15.5 3.0 32 8.1 SE 17 28 9 15 1024.1 1023.8 0.0
30/02:30pm 20.4 15.8 3.6 33 8.0 SSE 17 28 9 15 1024.3 1024.0 0.0
30/02:00pm 19.4 14.1 3.2 34 7.6 S 20 32 11 17 1024.7 1024.4 0.0
30/01:30pm 20.5 15.4 2.8 31 8.3 SSE 19 30 10 16 1025.0 1024.7 0.0
30/01:00pm 18.9 13.7 2.3 33 7.6 SSW 19 32 10 17 1025.8 1025.5 0.0
30/12:30pm 18.5 13.5 4.7 40 6.6 SSW 20 28 11 15 1026.2 1025.9 0.0
30/12:00pm 16.9 11.1 6.1 49 5.3 SW 26 35 14 19 1026.5 1026.2 0.0
30/11:30am 18.2 13.5 5.1 42 6.3 S 19 28 10 15 1026.3 1026.0 0.0
30/11:00am 16.6 13.5 5.6 48 5.3 SSW 11 17 6 9 1026.3 1026.0 0.0
30/10:30am 17.0 12.8 5.6 47 5.5 SSE 17 24 9 13 1026.2 1025.9 0.0
30/10:00am 16.0 13.0 6.2 52 4.8 S 11 17 6 9 1026.1 1025.8 0.0
30/09:30am 14.3 12.1 6.2 58 3.9 SSW 7 9 4 5 1025.8 1025.5 0.0
30/09:00am 12.3 10.3 7.0 70 2.5 WNW 7 9 4 5 1025.4 1025.1 0.0
30/08:30am 8.4 6.4 6.2 86 1.0 WNW 6 7 3 4 1025.0 1024.7 0.0
30/08:00am 6.2 3.5 3.7 84 1.1 NNE 7 7 4 4 1024.7 1024.4 0.0
30/07:30am 7.4 4.5 4.9 84 1.1 NW 9 15 5 8 1024.3 1024.0 0.0
30/07:00am 7.5 3.7 6.0 90 0.7 NW 15 19 8 10 1023.8 1023.5 0.0
30/06:30am 4.2 1.3 2.4 88 0.7 NW 7 9 4 5 1023.4 1023.1 0.0
30/06:00am 4.5 2.2 2.5 87 0.8 NW 4 7 2 4 1022.8 1022.5 0.0
30/05:30am 4.9 2.6 2.8 86 0.9 NNE 4 6 2 3 1022.4 1022.1 0.0
30/05:00am 5.8 3.3 3.5 85 1.0 NW 6 9 3 5 1022.0 1021.7 0.0
30/04:30am 5.9 3.7 3.2 83 1.1 NW 4 9 2 5 1022.1 1021.8 0.0
30/04:00am 5.4 2.7 2.9 84 1.0 NW 6 7 3 4 1021.9 1021.6 0.0
30/03:30am 5.7 2.8 2.4 79 1.3 NW 7 9 4 5 1021.9 1021.6 0.0
30/03:00am 7.6 6.3 4.0 78 1.6 CALM 0 0 0 0 1021.9 1021.6 0.0
30/02:30am 9.5 7.0 4.7 72 2.1 SSW 7 11 4 6 1022.0 1021.7 0.0
30/02:00am 10.8 7.3 5.3 69 2.5 SSW 13 19 7 10 1022.0 1021.7 0.0
30/01:30am 10.3 6.1 5.5 72 2.2 WSW 17 19 9 10 1022.0 1021.7 0.0
30/01:00am 10.7 6.5 5.9 72 2.2 WSW 17 19 9 10 1021.8 1021.5 0.0
30/12:30am 10.6 6.8 6.0 73 2.1 WSW 15 19 8 10 1021.9 1021.6 0.0
30/12:00am 10.8 7.5 6.2 73 2.1 WSW 13 15 7 8 1021.8 1021.5 0.0
 
Date/Time
CDT
Temp
°C
App
Temp
°C
Dew
Point
°C
Rel
Hum
%
Delta-T
°C
Wind Press
QNH
hPa
Press
MSL
hPa
Rain since
9am
mm
Dir  Spd
km/h
Gust
km/h
Spd
kts
Gust
kts
29/11:30pm 10.9 7.8 5.4 69 2.5 W 11 13 6 7 1021.7 1021.4 0.0
29/11:00pm 12.0 8.6 6.1 67 2.8 WSW 13 17 7 9 1021.6 1021.3 0.0
29/10:30pm 11.1 8.1 5.8 70 2.5 WSW 11 17 6 9 1021.3 1021.0 0.0
29/10:00pm 11.9 8.9 6.0 67 2.8 W 11 13 6 7 1020.9 1020.6 0.0
29/09:30pm 12.0 8.6 5.9 66 2.9 WSW 13 15 7 8 1020.6 1020.3 0.0
29/09:00pm 13.2 8.9 6.8 65 3.1 SW 19 24 10 13 1020.3 1020.0 0.0
29/08:30pm 14.1 8.4 6.5 60 3.7 SW 26 33 14 18 1019.8 1019.5 0.0
29/08:00pm 14.9 6.7 6.7 58 4.0 SW 39 50 21 27 1019.3 1019.0 0.0
29/07:48pm 15.5 7.6 6.0 53 4.6 SSW 37 57 20 31 1019.0 1018.8 0.0
29/07:30pm 15.8 8.5 7.3 57 4.2 SSW 35 46 19 25 1018.6 1018.4 0.0
29/07:00pm 16.7 9.0 7.1 53 4.8 SW 37 48 20 26 1018.0 1017.8 0.0
29/06:30pm 16.7 8.7 9.1 61 3.9 SW 41 61 22 33 1017.5 1017.3 0.0
29/06:29pm 16.6 8.2 9.1 61 3.9 SW 43 61 23 33 1017.5 1017.3 0.0
29/06:00pm 18.9 10.7 8.3 50 5.5 SW 41 54 22 29 1016.7 1016.4 0.0
29/05:30pm 19.6 10.7 6.7 43 6.5 SW 43 54 23 29 1016.3 1016.0 0.0
29/05:00pm 19.3 11.7 9.2 52 5.3 SW 39 52 21 28 1015.8 1015.5 0.0
29/04:30pm 18.9 11.8 11.0 60 4.3 SW 39 57 21 31 1015.5 1015.2 0.0
29/04:00pm 19.8 13.4 10.8 56 4.9 SW 35 44 19 24 1015.2 1014.9 0.0
29/03:30pm 19.8 13.4 12.1 61 4.3 SW 37 46 20 25 1015.2 1014.9 0.0
29/03:00pm 17.9 12.5 13.8 77 2.3 SW 35 48 19 26 1015.2 1014.9 0.0
29/02:42pm 19.5 12.6 12.8 65 3.8 SW 41 59 22 32 1015.1 1014.8 0.0
29/02:30pm 19.8 13.9 13.5 67 3.6 SW 37 44 20 24 1015.0 1014.7 0.0
29/02:00pm 21.2 14.3 12.9 59 4.7 SW 41 54 22 29 1014.7 1014.4 0.0
29/01:30pm 20.7 12.8 13.9 65 3.9 SW 48 61 26 33 1014.7 1014.4 0.0
29/01:24pm 21.2 12.9 12.6 58 4.9 WSW 48 61 26 33 1014.6 1014.3 0.0
29/01:00pm 24.3 17.2 12.3 47 6.9 W 41 52 22 28 1014.4 1014.1 0.0
29/12:30pm 23.0 15.7 11.4 48 6.5 WSW 41 54 22 29 1014.4 1014.1 0.0
29/12:00pm 22.2 14.5 11.6 51 5.9 W 43 57 23 31 1014.7 1014.4 0.0
29/11:34am 23.2 16.3 11.6 48 6.5 W 39 63 21 34 1014.6 1014.3 0.0
29/11:30am 22.9 16.3 12.5 52 5.9 W 39 50 21 27 1014.7 1014.4 0.0
29/11:08am 22.4 16.9 11.8 51 6.0 WSW 32 52 17 28 1014.7 1014.4 0.0
29/11:00am 22.1 16.8 12.6 55 5.4 W 32 41 17 22 1014.7 1014.4 0.0
29/10:30am 20.7 16.3 12.9 61 4.4 W 28 37 15 20 1014.8 1014.5 0.0
29/10:00am 19.1 15.5 13.1 68 3.4 WNW 24 33 13 18 1014.7 1014.4 0.0
29/09:30am 17.6 14.7 12.9 74 2.6 NW 20 24 11 13 1014.5 1014.2 0.0
29/09:00am 15.7 13.7 12.8 83 1.6 NNW 15 20 8 11 1014.2 1013.9 0.0
29/08:30am 13.2 10.8 11.4 89 1.0 NNW 15 19 8 10 1013.9 1013.6 0.0
29/08:00am 11.9 8.9 10.5 91 0.7 NNW 17 20 9 11 1013.7 1013.4 0.0
29/07:30am 12.0 9.3 10.4 90 0.8 NNW 15 17 8 9 1013.4 1013.1 0.0
29/07:00am 12.1 9.5 10.7 91 0.7 NNW 15 17 8 9 1013.3 1013.0 0.0
29/06:30am 12.1 9.5 10.7 91 0.7 NNW 15 19 8 10 1013.3 1013.0 0.0
29/06:00am 12.0 9.3 10.4 90 0.8 NNW 15 20 8 11 1013.1 1012.8 0.0
29/05:30am 12.2 9.6 10.6 90 0.8 NNW 15 19 8 10 1012.8 1012.5 0.0
29/05:00am 12.6 10.1 11.0 90 0.8 NNW 15 19 8 10 1012.8 1012.5 0.0
29/04:30am 12.6 10.5 11.0 90 0.8 NNW 13 17 7 9 1012.8 1012.5 0.0
29/04:00am 11.5 10.2 9.9 90 0.8 NNW 7 9 4 5 1012.9 1012.6 0.0
29/03:30am 11.4 10.0 9.7 89 0.9 N 7 9 4 5 1013.5 1013.2 0.0
29/03:00am 11.7 9.7 10.3 91 0.7 NNW 11 13 6 7 1013.6 1013.3 0.0
29/02:30am 11.3 9.6 9.9 91 0.7 NNW 9 11 5 6 1013.6 1013.3 0.0
29/02:00am 9.9 8.1 8.0 88 0.9 N 7 9 4 5 1013.6 1013.3 0.0
29/01:30am 9.2 6.8 7.0 86 1.0 N 9 9 5 5 1013.6 1013.3 0.0
29/01:00am 9.1 6.9 6.4 83 1.3 NNW 7 7 4 4 1014.1 1013.8 0.0
29/12:30am 9.8 8.7 7.1 83 1.3 NNE 2 7 1 4 1014.3 1014.0 0.0
29/12:00am 10.3 8.4 7.5 83 1.3 NNE 7 11 4 6 1014.5 1014.2 0.0
 
Date/Time
CDT
Temp
°C
App
Temp
°C
Dew
Point
°C
Rel
Hum
%
Delta-T
°C
Wind Press
QNH
hPa
Press
MSL
hPa
Rain since
9am
mm
Dir  Spd
km/h
Gust
km/h
Spd
kts
Gust
kts
28/11:30pm 11.3 9.6 8.2 81 1.5 NNE 7 9 4 5 1014.8 1014.5 0.0
28/11:00pm 12.1 11.8 8.6 79 1.7 CALM 0 0 0 0 1015.1 1014.8 0.0
28/10:30pm 12.6 11.0 7.9 73 2.3 NW 6 7 3 4 1015.3 1015.0 0.0
28/10:00pm 14.6 13.4 10.4 76 2.2 W 7 7 4 4 1015.3 1015.0 0.0
28/09:30pm 15.8 14.8 11.0 73 2.6 WSW 7 9 4 5 1015.1 1014.8 0.0
28/09:00pm 16.9 14.5 11.4 70 3.0 SW 15 20 8 11 1014.8 1014.5 0.0
28/08:30pm 17.8 14.5 11.6 67 3.4 SW 20 28 11 15 1014.4 1014.1 0.0
28/08:00pm 18.6 15.0 11.7 64 3.8 SW 22 30 12 16 1014.1 1013.8 0.0
28/07:30pm 19.5 14.7 11.8 61 4.3 SW 28 32 15 17 1013.9 1013.6 0.0
28/07:00pm 21.3 16.3 11.1 52 5.6 SW 28 33 15 18 1013.7 1013.4 0.0
28/06:30pm 23.1 17.9 10.2 44 7.1 SW 28 35 15 19 1013.2 1012.9 0.0
28/06:00pm 25.1 20.2 9.8 38 8.4 SW 26 37 14 20 1013.2 1012.9 0.0
28/05:30pm 26.4 21.7 9.3 34 9.4 SW 24 32 13 17 1013.0 1012.7 0.0
28/05:00pm 27.1 23.7 7.5 29 10.5 WSW 15 26 8 14 1013.0 1012.7 0.0
28/04:30pm 27.2 22.6 6.6 27 10.9 WSW 20 32 11 17 1013.3 1013.0 0.0
28/04:00pm 27.1 23.1 6.5 27 10.9 WSW 17 32 9 17 1013.7 1013.4 0.0
28/03:30pm 27.1 23.2 7.0 28 10.7 W 17 32 9 17 1013.9 1013.6 0.0
28/03:00pm 25.4 22.0 7.5 32 9.5 WNW 15 26 8 14 1014.4 1014.1 0.0
28/02:30pm 25.3 22.4 8.3 34 9.1 NNW 13 20 7 11 1014.7 1014.4 0.0
28/02:00pm 24.6 21.9 9.0 37 8.5 NW 13 22 7 12 1015.3 1015.0 0.0
28/01:30pm 23.6 21.2 8.8 39 8.0 NW 11 19 6 10 1015.8 1015.5 0.0
28/01:00pm 23.0 20.9 9.8 43 7.2 NNW 11 20 6 11 1016.3 1016.0 0.0
28/12:30pm 22.4 19.9 9.6 44 6.9 WSW 13 24 7 13 1016.7 1016.4 0.0
28/12:00pm 21.2 19.2 10.1 49 6.0 SW 11 17 6 9 1017.2 1017.0 0.0
28/11:30am 19.9 18.2 10.0 53 5.3 WNW 9 17 5 9 1017.7 1017.5 0.0

Other Formats:

Comma delimited format used in spreadsheet applications
http://www.bom.gov.au/fwo/IDS60801/IDS60801.95654.axf

JavaScript Object Notation format (JSON) in row-major order
http://www.bom.gov.au/fwo/IDS60801/IDS60801.95654.json